Time;durP1;ratioP1;P1;durP2;ratioP2;P2;SDS_P1;SDS_P2;PMS_P1;PMS_P2;Temp;Humidity;BMP_temperature;BMP_pressure;BME280_temperature;BME280_humidity;BME280_pressure;Samples;Min_cycle;Max_cycle;Signal;HPM_P1;HPM_P2
2021/10/16 00:02:19;;;;;;;3.95;1.92;;;18.30;54.40;;;;;;5078878;28;20227;-46
2021/10/16 00:04:50;;;;;;;3.25;1.80;;;18.40;54.90;;;;;;5075470;28;20433;-48
2021/10/16 00:07:20;;;;;;;3.28;1.52;;;18.40;54.30;;;;;;5074128;28;20295;-48
2021/10/16 00:09:51;;;;;;;3.10;1.40;;;18.40;54.40;;;;;;5081004;28;20253;-44
2021/10/16 00:12:21;;;;;;;4.40;1.30;;;18.50;54.60;;;;;;5073934;28;20264;-46
2021/10/16 00:14:54;;;;;;;2.92;1.30;;;18.50;54.80;;;;;;5070732;28;20202;-47
2021/10/16 00:17:24;;;;;;;4.63;1.20;;;18.60;54.80;;;;;;5076705;28;20305;-43
2021/10/16 00:19:55;;;;;;;11.27;3.05;;;18.60;54.60;;;;;;5083147;28;20261;-45
2021/10/16 00:22:26;;;;;;;14.95;4.70;;;18.70;54.40;;;;;;5080491;28;20256;-48
2021/10/16 00:24:56;;;;;;;5.20;2.47;;;18.80;54.30;;;;;;5073553;28;20230;-43
2021/10/16 00:27:27;;;;;;;8.73;2.70;;;18.80;54.30;;;;;;5071937;28;20285;-48
2021/10/16 00:29:59;;;;;;;9.60;2.40;;;18.80;54.30;;;;;;5069937;28;20708;-44
2021/10/16 00:32:29;;;;;;;7.55;2.67;;;18.90;54.30;;;;;;5070325;28;20238;-52
2021/10/16 00:35:00;;;;;;;5.38;2.28;;;18.90;54.20;;;;;;5070619;28;20233;-45
2021/10/16 00:37:30;;;;;;;4.93;1.92;;;19.00;54.20;;;;;;5070224;28;20305;-47
2021/10/16 00:40:01;;;;;;;5.57;2.40;;;19.00;54.10;;;;;;5070749;28;20242;-50
2021/10/16 00:42:31;;;;;;;6.63;2.20;;;19.00;54.00;;;;;;5077704;28;20689;-51
2021/10/16 00:45:04;;;;;;;5.20;2.38;;;19.00;53.90;;;;;;5069435;28;20471;-47
2021/10/16 00:47:34;;;;;;;4.68;2.33;;;19.10;53.80;;;;;;5071582;28;20230;-55
2021/10/16 00:50:05;;;;;;;4.50;2.20;;;19.10;53.80;;;;;;5072195;28;20258;-52
2021/10/16 00:52:37;;;;;;;5.30;2.47;;;19.10;53.60;;;;;;5071564;28;20487;-52
2021/10/16 00:55:10;;;;;;;6.90;2.33;;;19.10;53.60;;;;;;5071615;28;20218;-48
2021/10/16 00:57:40;;;;;;;4.22;1.70;;;19.20;53.50;;;;;;5070334;28;20691;-48
2021/10/16 01:00:14;;;;;;;6.15;2.17;;;19.20;53.40;;;;;;5077116;28;20306;-52
2021/10/16 01:02:45;;;;;;;3.30;2.08;;;19.20;53.20;;;;;;5071533;28;20238;-52
2021/10/16 01:05:16;;;;;;;4.60;1.90;;;19.20;53.20;;;;;;5072615;28;20242;-47
2021/10/16 01:07:46;;;;;;;4.88;2.40;;;19.20;53.30;;;;;;5072571;28;20230;-44
2021/10/16 01:10:17;;;;;;;3.30;2.00;;;19.20;53.30;;;;;;5073695;28;20214;-52
2021/10/16 01:12:49;;;;;;;3.08;1.95;;;19.30;53.30;;;;;;5088483;28;20641;-52
2021/10/16 01:15:23;;;;;;;3.75;2.20;;;19.30;53.30;;;;;;5078111;28;20456;-46
2021/10/16 01:17:54;;;;;;;3.95;1.98;;;19.30;53.20;;;;;;5075736;28;20230;-46
2021/10/16 01:20:26;;;;;;;3.70;2.03;;;19.40;53.10;;;;;;5080565;28;20252;-53
2021/10/16 01:23:00;;;;;;;3.70;2.08;;;19.40;53.00;;;;;;5087279;28;20230;-50
2021/10/16 01:25:30;;;;;;;3.83;1.90;;;19.40;52.90;;;;;;5075887;28;20234;-49
2021/10/16 01:28:01;;;;;;;3.78;1.73;;;19.50;52.90;;;;;;5081617;28;20265;-49
2021/10/16 01:30:32;;;;;;;4.45;2.17;;;19.50;52.80;;;;;;5073914;28;20219;-46
2021/10/16 01:33:03;;;;;;;3.53;1.80;;;19.50;52.80;;;;;;5073637;28;20237;-54
2021/10/16 01:35:33;;;;;;;4.07;1.90;;;19.50;52.80;;;;;;5074851;28;20701;-51
2021/10/16 01:38:06;;;;;;;3.05;1.63;;;19.50;52.70;;;;;;5084272;28;20832;-48
2021/10/16 01:40:36;;;;;;;4.15;1.80;;;19.60;52.60;;;;;;5079529;28;20301;-48
2021/10/16 01:43:08;;;;;;;3.58;1.88;;;19.60;52.50;;;;;;5075021;28;20282;-54
2021/10/16 01:45:38;;;;;;;3.50;2.08;;;19.60;52.50;;;;;;5075262;28;20286;-51
2021/10/16 01:48:09;;;;;;;4.32;1.50;;;19.60;52.50;;;;;;5074771;28;20198;-54
2021/10/16 01:50:44;;;;;;;2.78;2.00;;;19.60;52.50;;;;;;5072855;28;20257;-46
2021/10/16 01:53:16;;;;;;;4.32;2.05;;;19.60;52.50;;;;;;5072673;28;20226;-51
2021/10/16 01:55:47;;;;;;;3.67;1.85;;;19.70;52.50;;;;;;5073082;28;20222;-54
2021/10/16 01:58:19;;;;;;;4.55;1.73;;;19.70;52.50;;;;;;5073879;28;20915;-49
2021/10/16 02:00:50;;;;;;;4.25;2.20;;;19.70;52.50;;;;;;5073752;28;20262;-49
2021/10/16 02:03:20;;;;;;;3.22;1.70;;;19.70;52.40;;;;;;5073613;28;20241;-53
2021/10/16 02:05:51;;;;;;;2.60;1.70;;;19.80;52.40;;;;;;5078003;28;20231;-45
2021/10/16 02:08:23;;;;;;;3.15;1.50;;;19.80;52.20;;;;;;5074331;28;20222;-50
2021/10/16 02:10:54;;;;;;;3.30;1.50;;;19.80;52.20;;;;;;5075051;28;20635;-46
2021/10/16 02:13:24;;;;;;;3.00;1.70;;;19.90;52.10;;;;;;5073318;28;20230;-49
2021/10/16 02:15:54;;;;;;;3.95;1.90;;;19.90;52.70;;;;;;5071401;28;20198;-48
2021/10/16 02:18:25;;;;;;;2.85;1.80;;;19.90;52.00;;;;;;5073272;28;20250;-50
2021/10/16 02:20:55;;;;;;;1.75;1.50;;;19.90;52.00;;;;;;5074713;28;20250;-52
2021/10/16 02:23:28;;;;;;;2.97;1.50;;;20.00;52.10;;;;;;5074740;28;20257;-48
2021/10/16 02:25:58;;;;;;;2.40;1.60;;;20.00;52.00;;;;;;5077319;28;20268;-47
2021/10/16 02:28:29;;;;;;;2.80;1.58;;;20.00;51.90;;;;;;5075371;28;20230;-50
2021/10/16 02:30:59;;;;;;;1.40;1.15;;;20.00;51.80;;;;;;5074482;28;20277;-47
2021/10/16 02:33:30;;;;;;;3.40;1.63;;;20.10;51.90;;;;;;5072766;28;20291;-50
2021/10/16 02:36:00;;;;;;;3.33;1.85;;;20.10;51.90;;;;;;5075424;28;20225;-52
2021/10/16 02:38:33;;;;;;;2.88;1.30;;;20.10;51.90;;;;;;5072415;28;20498;-46
2021/10/16 02:41:03;;;;;;;2.80;1.70;;;20.10;51.80;;;;;;5088059;28;20249;-52
2021/10/16 02:43:34;;;;;;;3.08;1.45;;;20.20;51.70;;;;;;5074250;28;20662;-52
2021/10/16 02:46:04;;;;;;;2.40;1.50;;;20.20;51.50;;;;;;5073221;28;20203;-46
2021/10/16 02:48:35;;;;;;;3.78;1.60;;;20.30;51.40;;;;;;5073022;28;20293;-52
2021/10/16 02:51:05;;;;;;;2.97;1.60;;;20.30;51.30;;;;;;5073858;28;20885;-49
2021/10/16 02:53:41;;;;;;;2.75;1.58;;;20.30;51.30;;;;;;5073344;28;20244;-44
2021/10/16 02:56:11;;;;;;;2.25;1.35;;;20.40;51.20;;;;;;5076600;28;20281;-49
2021/10/16 02:58:43;;;;;;;3.47;1.67;;;20.40;51.20;;;;;;5073248;28;20651;-51
2021/10/16 03:01:14;;;;;;;2.47;1.60;;;20.40;51.10;;;;;;5090484;28;20257;-54
2021/10/16 03:03:44;;;;;;;2.78;2.00;;;20.50;51.10;;;;;;5072034;28;20222;-45
2021/10/16 03:06:15;;;;;;;2.40;1.20;;;20.50;51.10;;;;;;5074263;28;20643;-48
2021/10/16 03:08:47;;;;;;;3.80;1.63;;;20.50;51.10;;;;;;5073937;28;20231;-47
2021/10/16 03:11:18;;;;;;;2.97;1.42;;;20.50;51.00;;;;;;5073883;28;20278;-49
2021/10/16 03:13:48;;;;;;;3.05;1.50;;;20.60;51.00;;;;;;5076508;28;20754;-48
2021/10/16 03:16:23;;;;;;;1.77;1.45;;;20.60;51.00;;;;;;5072067;28;20564;-52
2021/10/16 03:18:54;;;;;;;3.05;1.27;;;20.60;51.00;;;;;;5073282;28;20214;-45
2021/10/16 03:21:24;;;;;;;3.50;1.40;;;20.70;51.00;;;;;;5074296;28;20620;-49
2021/10/16 03:23:56;;;;;;;2.58;1.48;;;20.70;50.80;;;;;;5072122;28;20333;-44
2021/10/16 03:26:27;;;;;;;2.75;1.30;;;20.70;50.70;;;;;;5071267;28;20286;-48
2021/10/16 03:28:57;;;;;;;1.88;1.52;;;20.80;50.70;;;;;;5072757;28;20230;-47
2021/10/16 03:31:28;;;;;;;2.30;1.40;;;20.80;50.50;;;;;;5072982;28;20301;-45
2021/10/16 03:33:58;;;;;;;1.63;1.10;;;20.80;50.40;;;;;;5074529;28;20234;-49
2021/10/16 03:36:29;;;;;;;2.20;1.38;;;20.80;50.40;;;;;;5080977;28;20236;-56
2021/10/16 03:39:01;;;;;;;3.63;1.60;;;20.80;50.40;;;;;;5071553;28;20303;-46
2021/10/16 03:41:32;;;;;;;3.25;1.42;;;20.80;50.50;;;;;;5071406;28;20240;-45
2021/10/16 03:44:02;;;;;;;2.53;1.38;;;20.90;50.60;;;;;;5083000;28;20277;-55
2021/10/16 03:46:33;;;;;;;2.10;1.30;;;20.90;50.50;;;;;;5075135;28;20389;-50
2021/10/16 03:49:03;;;;;;;3.60;1.48;;;20.90;50.50;;;;;;5086504;28;20286;-54
2021/10/16 03:51:34;;;;;;;3.10;1.23;;;20.90;50.30;;;;;;5073063;28;20210;-51
2021/10/16 03:54:07;;;;;;;3.05;1.27;;;20.90;50.30;;;;;;5066416;28;20257;-50
2021/10/16 03:56:37;;;;;;;2.05;1.30;;;20.90;50.00;;;;;;5068240;28;20627;-49
2021/10/16 03:59:10;;;;;;;2.72;1.30;;;20.90;49.90;;;;;;5069661;28;20293;-48
2021/10/16 04:01:41;;;;;;;3.05;1.40;;;20.90;49.90;;;;;;5075290;28;20355;-53
2021/10/16 04:04:11;;;;;;;6.00;3.88;;;20.90;49.90;;;;;;5076069;28;20786;-47
2021/10/16 04:06:42;;;;;;;6.90;4.57;;;20.90;49.90;;;;;;5066779;28;20286;-54
2021/10/16 04:09:15;;;;;;;4.57;3.10;;;20.90;49.80;;;;;;5085819;28;20281;-49
2021/10/16 04:11:45;;;;;;;5.90;3.13;;;21.00;49.80;;;;;;5071455;28;20276;-47
2021/10/16 04:14:16;;;;;;;4.80;3.03;;;20.90;49.70;;;;;;5070885;28;20276;-53
2021/10/16 04:16:46;;;;;;;3.85;2.88;;;21.00;49.80;;;;;;5068859;28;20281;-55
2021/10/16 04:19:17;;;;;;;3.47;2.90;;;21.00;49.80;;;;;;5080285;28;20746;-46
2021/10/16 04:21:47;;;;;;;4.13;2.60;;;20.90;49.70;;;;;;5089024;28;20629;-52
2021/10/16 04:24:20;;;;;;;4.63;3.03;;;20.90;49.70;;;;;;5073391;28;20252;-53
2021/10/16 04:26:50;;;;;;;3.78;2.67;;;20.90;49.80;;;;;;5066185;28;20860;-46
2021/10/16 04:29:24;;;;;;;4.93;2.90;;;21.00;49.80;;;;;;5068178;28;20299;-43
2021/10/16 04:31:54;;;;;;;4.55;3.13;;;21.00;49.80;;;;;;5088123;28;20197;-48
2021/10/16 04:34:25;;;;;;;3.83;2.83;;;21.00;49.80;;;;;;5081387;28;20295;-48
2021/10/16 04:36:55;;;;;;;4.05;2.67;;;20.90;49.70;;;;;;5074563;28;20231;-46
2021/10/16 04:39:29;;;;;;;4.22;2.85;;;20.90;49.80;;;;;;5073777;28;20756;-46
2021/10/16 04:41:59;;;;;;;3.55;2.45;;;21.00;49.80;;;;;;5072986;28;20195;-44
2021/10/16 04:44:30;;;;;;;3.85;2.47;;;20.90;49.70;;;;;;5074098;28;20290;-48
2021/10/16 04:47:00;;;;;;;4.40;2.53;;;21.00;49.80;;;;;;5072751;28;20237;-46
2021/10/16 04:49:31;;;;;;;2.67;2.25;;;20.90;49.70;;;;;;5085878;28;20297;-50
2021/10/16 04:52:02;;;;;;;3.03;2.65;;;20.90;49.80;;;;;;5068040;28;20227;-49
2021/10/16 04:54:34;;;;;;;3.50;2.50;;;20.90;49.80;;;;;;5080341;28;20721;-49
2021/10/16 04:57:05;;;;;;;3.80;2.10;;;21.00;49.90;;;;;;5076147;28;20198;-46
2021/10/16 04:59:38;;;;;;;2.75;2.10;;;21.00;49.80;;;;;;5070725;28;20875;-49
2021/10/16 05:02:09;;;;;;;3.67;2.50;;;20.90;49.70;;;;;;5079284;28;20206;-45
2021/10/16 05:04:39;;;;;;;4.03;2.30;;;21.00;49.70;;;;;;5081887;28;20230;-52
2021/10/16 05:07:09;;;;;;;4.53;2.58;;;20.90;49.70;;;;;;5077699;28;20628;-48
2021/10/16 05:09:42;;;;;;;3.22;2.22;;;20.90;49.60;;;;;;5076096;28;20301;-47
2021/10/16 05:12:12;;;;;;;3.88;2.20;;;20.90;49.80;;;;;;5084896;28;20234;-44
2021/10/16 05:14:43;;;;;;;3.70;2.20;;;20.90;49.80;;;;;;5079925;28;20237;-47
2021/10/16 05:17:13;;;;;;;4.38;2.35;;;20.90;49.90;;;;;;5083770;28;20195;-49
2021/10/16 05:19:44;;;;;;;5.25;2.45;;;20.90;49.90;;;;;;5079997;28;20317;-49
2021/10/16 05:22:14;;;;;;;3.70;2.28;;;20.80;49.90;;;;;;5070762;28;20626;-50
2021/10/16 05:24:47;;;;;;;3.33;2.20;;;20.80;50.00;;;;;;5075759;28;20333;-44
2021/10/16 05:27:17;;;;;;;4.40;2.40;;;20.80;49.90;;;;;;5076245;28;20226;-53
2021/10/16 05:29:47;;;;;;;4.45;2.15;;;20.80;50.00;;;;;;5069145;28;20294;-47
2021/10/16 05:32:18;;;;;;;6.60;2.58;;;20.80;50.10;;;;;;5079440;28;20233;-49
2021/10/16 05:34:48;;;;;;;2.80;2.20;;;20.80;50.10;;;;;;5079063;28;20278;-50
2021/10/16 05:37:19;;;;;;;3.72;2.22;;;20.80;50.20;;;;;;5073628;28;20277;-47
2021/10/16 05:39:51;;;;;;;2.92;2.20;;;20.80;50.20;;;;;;5077759;28;20313;-53
2021/10/16 05:42:22;;;;;;;4.35;2.20;;;20.70;50.10;;;;;;5076370;28;20190;-44
2021/10/16 05:44:52;;;;;;;6.65;2.22;;;20.70;50.20;;;;;;5089735;28;20266;-49
2021/10/16 05:47:23;;;;;;;3.42;2.60;;;20.70;50.10;;;;;;5093920;28;20214;-49
2021/10/16 05:49:53;;;;;;;3.15;2.20;;;20.70;50.20;;;;;;5078996;28;20631;-51
2021/10/16 05:52:24;;;;;;;2.60;2.17;;;20.70;50.20;;;;;;5095968;28;20282;-46
2021/10/16 05:54:56;;;;;;;3.78;2.00;;;20.70;50.20;;;;;;5095899;28;21491;-53
2021/10/16 05:57:27;;;;;;;2.90;2.20;;;20.60;50.20;;;;;;5087589;28;20242;-46
2021/10/16 05:59:57;;;;;;;4.25;2.22;;;20.60;50.20;;;;;;5073330;28;20371;-51
2021/10/16 06:02:27;;;;;;;2.65;2.30;;;20.60;50.20;;;;;;5098608;28;20281;-50
2021/10/16 06:04:58;;;;;;;4.95;2.95;;;20.60;50.30;;;;;;5087449;28;20240;-40
2021/10/16 06:07:28;;;;;;;5.03;2.80;;;20.60;50.30;;;;;;5077725;28;20241;-49
2021/10/16 06:10:01;;;;;;;3.10;2.60;;;20.60;50.30;;;;;;5079284;28;20242;-47
2021/10/16 06:12:32;;;;;;;4.57;2.85;;;20.50;50.30;;;;;;5085095;28;20206;-45
2021/10/16 06:15:02;;;;;;;2.83;2.30;;;20.60;50.50;;;;;;5085259;28;20281;-44
2021/10/16 06:17:33;;;;;;;4.63;2.33;;;20.50;50.40;;;;;;5081717;28;20729;-46
2021/10/16 06:20:03;;;;;;;5.45;2.65;;;20.50;50.40;;;;;;5075575;28;20309;-47
2021/10/16 06:22:34;;;;;;;3.72;2.60;;;20.50;50.40;;;;;;5086467;28;20284;-44
2021/10/16 06:25:07;;;;;;;4.00;2.80;;;20.50;50.40;;;;;;5084581;28;20649;-43
2021/10/16 06:27:38;;;;;;;3.55;2.72;;;20.50;50.40;;;;;;5076041;28;20284;-50
2021/10/16 06:30:09;;;;;;;4.05;2.70;;;20.50;50.50;;;;;;5073323;28;20301;-45
2021/10/16 06:32:39;;;;;;;3.78;2.47;;;20.40;51.00;;;;;;5077527;28;20288;-46
2021/10/16 06:35:10;;;;;;;3.45;2.60;;;20.50;50.50;;;;;;5081411;28;20265;-46
2021/10/16 06:37:41;;;;;;;3.28;2.70;;;20.40;50.50;;;;;;5084850;28;20277;-45
2021/10/16 06:40:13;;;;;;;4.05;2.80;;;20.40;50.50;;;;;;5076964;28;20305;-44
2021/10/16 06:42:44;;;;;;;3.40;2.70;;;20.40;50.50;;;;;;5084990;28;20278;-43
2021/10/16 06:45:14;;;;;;;3.33;2.40;;;20.40;50.50;;;;;;5087345;28;20525;-51
2021/10/16 06:47:45;;;;;;;4.18;2.70;;;20.40;50.50;;;;;;5078185;28;20278;-46
2021/10/16 06:50:15;;;;;;;3.70;3.08;;;20.30;50.60;;;;;;5077405;28;20302;-44
2021/10/16 06:52:46;;;;;;;4.47;2.80;;;20.30;50.60;;;;;;5070957;28;20249;-48
2021/10/16 06:55:18;;;;;;;4.68;2.75;;;20.30;50.60;;;;;;5084314;28;20467;-47
2021/10/16 06:57:49;;;;;;;5.22;3.22;;;20.30;50.60;;;;;;5085946;28;20202;-45
2021/10/16 07:00:19;;;;;;;3.58;2.92;;;20.20;50.60;;;;;;5078904;28;20313;-50
2021/10/16 07:02:50;;;;;;;4.70;3.20;;;20.20;50.70;;;;;;5071222;28;20685;-49
2021/10/16 07:05:20;;;;;;;5.07;2.60;;;20.20;50.70;;;;;;5075989;28;20666;-45
2021/10/16 07:07:51;;;;;;;3.78;3.30;;;20.20;50.70;;;;;;5071657;28;20274;-48
2021/10/16 07:10:23;;;;;;;3.88;3.05;;;20.20;50.70;;;;;;5082137;28;20872;-49
2021/10/16 07:12:54;;;;;;;4.13;3.08;;;20.20;50.70;;;;;;5088332;28;20289;-49
2021/10/16 07:15:25;;;;;;;3.83;3.03;;;20.20;50.80;;;;;;5086920;28;20201;-43
2021/10/16 07:17:55;;;;;;;5.07;3.42;;;20.10;50.70;;;;;;5091777;28;20292;-45
2021/10/16 07:20:26;;;;;;;4.05;3.50;;;20.10;50.80;;;;;;5080218;28;20262;-42
2021/10/16 07:22:56;;;;;;;3.13;2.78;;;20.10;50.70;;;;;;5073662;28;20198;-44
2021/10/16 07:25:29;;;;;;;3.97;2.90;;;20.10;50.70;;;;;;5097935;28;20280;-41
2021/10/16 07:27:59;;;;;;;5.78;3.17;;;20.10;50.70;;;;;;5077773;28;20685;-43
2021/10/16 07:30:30;;;;;;;3.42;3.13;;;20.00;50.70;;;;;;5081056;28;20245;-49
2021/10/16 07:33:00;;;;;;;3.97;3.00;;;20.00;50.80;;;;;;5075817;28;20241;-45
2021/10/16 07:35:31;;;;;;;5.22;3.60;;;20.00;51.10;;;;;;5092003;28;20229;-42
2021/10/16 07:38:01;;;;;;;5.18;3.10;;;20.00;51.30;;;;;;5073849;28;20639;-47
2021/10/16 07:40:34;;;;;;;4.82;3.38;;;20.00;51.30;;;;;;5074397;28;20313;-45
2021/10/16 07:43:06;;;;;;;3.40;3.10;;;20.00;51.40;;;;;;5067160;28;20241;-42
2021/10/16 07:45:37;;;;;;;4.25;3.35;;;20.00;51.30;;;;;;5082716;28;20198;-42
2021/10/16 07:48:08;;;;;;;5.70;3.25;;;20.00;51.30;;;;;;5097620;28;20280;-47
2021/10/16 07:50:38;;;;;;;3.22;2.92;;;19.90;51.20;;;;;;5073116;28;20306;-42
2021/10/16 07:53:09;;;;;;;3.25;2.95;;;19.90;51.20;;;;;;5082472;28;20217;-44
2021/10/16 07:55:41;;;;;;;4.15;2.70;;;19.90;51.20;;;;;;5086228;28;20278;-45
2021/10/16 07:58:13;;;;;;;4.60;2.80;;;19.90;51.20;;;;;;5078519;28;20718;-42
2021/10/16 08:00:43;;;;;;;3.15;2.85;;;19.90;51.20;;;;;;5087069;28;20308;-50
2021/10/16 08:03:14;;;;;;;3.20;2.90;;;19.90;51.20;;;;;;5076363;28;20240;-43
2021/10/16 08:05:44;;;;;;;3.53;2.80;;;19.90;51.20;;;;;;5074056;28;20659;-48
2021/10/16 08:08:15;;;;;;;3.05;2.75;;;19.80;51.20;;;;;;5077121;28;20274;-43
2021/10/16 08:10:47;;;;;;;3.17;2.88;;;19.80;51.20;;;;;;5095323;28;20246;-52
2021/10/16 08:13:17;;;;;;;4.75;3.30;;;19.80;51.20;;;;;;5068347;28;20714;-42
2021/10/16 08:15:48;;;;;;;3.33;2.70;;;19.70;51.10;;;;;;5071837;28;20245;-48
2021/10/16 08:18:18;;;;;;;3.38;3.00;;;19.70;51.10;;;;;;5088465;28;20282;-52
2021/10/16 08:20:49;;;;;;;3.17;2.72;;;19.70;51.10;;;;;;5095384;28;20386;-52
2021/10/16 08:23:20;;;;;;;3.25;2.70;;;19.70;51.20;;;;;;5082264;28;20202;-53
2021/10/16 08:25:52;;;;;;;3.00;2.70;;;19.70;51.20;;;;;;5070647;28;20234;-52
2021/10/16 08:28:23;;;;;;;3.65;2.72;;;19.60;51.10;;;;;;5070343;28;20195;-49
2021/10/16 08:30:53;;;;;;;4.93;3.08;;;19.60;51.20;;;;;;5083783;28;20646;-47
2021/10/16 08:33:25;;;;;;;3.78;2.72;;;19.60;51.20;;;;;;5071550;28;20221;-50
2021/10/16 08:35:55;;;;;;;3.05;2.63;;;19.60;51.20;;;;;;5068705;28;20203;-49
2021/10/16 08:38:26;;;;;;;3.08;2.42;;;19.50;51.30;;;;;;5082240;28;20283;-49
2021/10/16 08:40:58;;;;;;;3.35;2.80;;;19.60;51.20;;;;;;5078301;28;20325;-48
2021/10/16 08:43:29;;;;;;;3.47;2.70;;;19.50;51.20;;;;;;5077815;28;20237;-48
2021/10/16 08:46:03;;;;;;;3.38;2.83;;;19.50;51.20;;;;;;5073065;28;20226;-46
2021/10/16 08:48:34;;;;;;;3.08;2.65;;;19.40;51.10;;;;;;5076495;28;20202;-47
2021/10/16 08:51:05;;;;;;;3.65;2.90;;;19.40;51.10;;;;;;5093608;28;20303;-47
2021/10/16 08:53:36;;;;;;;3.00;2.70;;;19.40;51.20;;;;;;5071952;28;20307;-44
2021/10/16 08:56:09;;;;;;;2.78;2.47;;;19.40;51.20;;;;;;5075381;28;20253;-49
2021/10/16 08:58:39;;;;;;;2.92;2.53;;;19.40;51.20;;;;;;5081733;28;20248;-46
2021/10/16 09:01:10;;;;;;;2.58;2.38;;;19.40;51.20;;;;;;5082316;28;20226;-50
2021/10/16 09:03:45;;;;;;;3.00;2.70;;;19.30;51.20;;;;;;5098287;28;20190;-45
2021/10/16 09:06:18;;;;;;;3.20;2.58;;;19.30;51.20;;;;;;5068967;28;20208;-47
2021/10/16 09:08:53;;;;;;;2.72;2.53;;;19.30;51.20;;;;;;5081457;28;20289;-50
2021/10/16 09:11:27;;;;;;;3.28;2.85;;;19.30;51.20;;;;;;5082841;28;20251;-52
2021/10/16 09:14:03;;;;;;;2.55;2.35;;;19.20;51.20;;;;;;5087844;28;20879;-49
2021/10/16 09:16:36;;;;;;;2.72;2.53;;;19.20;51.20;;;;;;5079931;28;20665;-45
2021/10/16 09:19:16;;;;;;;3.65;2.60;;;19.20;51.30;;;;;;5074967;28;20233;-47
2021/10/16 09:21:50;;;;;;;3.13;2.55;;;19.20;51.30;;;;;;5083006;28;21300;-50
2021/10/16 09:24:24;;;;;;;2.85;2.55;;;19.20;51.30;;;;;;5073294;28;20193;-44
2021/10/16 09:26:59;;;;;;;2.20;2.00;;;19.10;51.20;;;;;;5074859;28;20255;-45
2021/10/16 09:29:31;;;;;;;2.50;2.30;;;19.10;51.30;;;;;;5072568;28;20221;-50
2021/10/16 09:32:04;;;;;;;3.05;2.50;;;19.10;51.40;;;;;;5070449;28;20209;-45
2021/10/16 09:34:35;;;;;;;2.55;2.35;;;19.10;51.50;;;;;;5081372;28;20209;-47
2021/10/16 09:37:08;;;;;;;3.08;2.45;;;19.00;51.50;;;;;;5072679;28;21724;-47
2021/10/16 09:39:40;;;;;;;2.85;2.40;;;19.00;51.50;;;;;;5070548;28;20741;-49
2021/10/16 09:42:14;;;;;;;2.83;2.40;;;19.00;51.50;;;;;;5072244;28;20234;-46
2021/10/16 09:44:44;;;;;;;3.40;2.53;;;19.00;51.50;;;;;;5067820;28;20281;-48
2021/10/16 09:47:17;;;;;;;2.45;2.15;;;19.00;51.50;;;;;;5074092;28;20194;-48
2021/10/16 09:49:49;;;;;;;2.92;2.40;;;19.00;51.50;;;;;;5070915;28;20238;-47
2021/10/16 09:52:21;;;;;;;2.45;2.25;;;18.90;51.50;;;;;;5073878;28;20689;-49
2021/10/16 09:54:52;;;;;;;2.35;2.10;;;18.90;51.50;;;;;;5071547;28;20222;-45
2021/10/16 09:57:27;;;;;;;2.92;2.25;;;18.90;51.50;;;;;;5073418;28;20252;-45
2021/10/16 09:59:58;;;;;;;2.60;2.40;;;18.90;51.60;;;;;;5073160;28;20245;-44
2021/10/16 10:02:30;;;;;;;4.28;2.47;;;18.80;51.50;;;;;;5077515;28;20642;-47
2021/10/16 10:05:03;;;;;;;2.60;2.17;;;18.80;51.50;;;;;;5074230;28;20281;-44
2021/10/16 10:07:36;;;;;;;2.30;2.10;;;18.80;51.50;;;;;;5074616;28;20639;-45
2021/10/16 10:10:08;;;;;;;2.40;2.20;;;18.80;51.50;;;;;;5073227;28;20677;-49
2021/10/16 10:12:41;;;;;;;2.83;1.95;;;18.80;51.60;;;;;;5072976;28;20256;-48
2021/10/16 10:15:12;;;;;;;2.40;2.17;;;18.70;51.50;;;;;;5075274;28;20233;-46
2021/10/16 10:17:44;;;;;;;2.30;2.05;;;18.70;51.50;;;;;;5072045;28;20766;-47
2021/10/16 10:20:16;;;;;;;2.22;1.98;;;18.70;51.60;;;;;;5074003;28;20310;-49
2021/10/16 10:22:46;;;;;;;2.90;2.15;;;18.70;51.50;;;;;;5079273;28;20234;-48
2021/10/16 10:25:25;;;;;;;2.03;1.83;;;18.70;51.60;;;;;;5075829;28;20206;-51
2021/10/16 10:27:58;;;;;;;1.90;1.80;;;18.60;51.60;;;;;;5069578;28;20282;-46
2021/10/16 10:30:46;;;;;;;2.55;1.90;;;18.60;51.60;;;;;;5074545;28;20218;-46
2021/10/16 10:33:29;;;;;;;2.70;1.80;;;18.60;51.60;;;;;;5085073;28;20533;-45
2021/10/16 10:36:27;;;;;;;2.75;2.40;;;18.60;51.70;;;;;;5077948;28;20198;-49
2021/10/16 10:38:58;;;;;;;2.75;2.20;;;18.60;51.70;;;;;;5072488;28;20445;-45
2021/10/16 10:41:35;;;;;;;2.78;2.20;;;18.60;51.70;;;;;;5075346;28;20276;-45
2021/10/16 10:44:08;;;;;;;2.53;2.08;;;18.60;51.70;;;;;;5072471;28;20757;-46
2021/10/16 10:46:38;;;;;;;2.55;1.95;;;18.60;51.70;;;;;;5076330;28;20290;-48
2021/10/16 10:49:13;;;;;;;3.35;2.30;;;18.50;51.60;;;;;;5073591;28;20226;-42
2021/10/16 10:51:44;;;;;;;3.03;2.15;;;18.50;51.60;;;;;;5090273;28;20201;-45
2021/10/16 10:54:16;;;;;;;3.30;2.42;;;18.50;51.70;;;;;;5073882;28;20230;-44
2021/10/16 10:56:52;;;;;;;2.97;1.90;;;18.50;51.70;;;;;;5071112;28;20226;-45
2021/10/16 10:59:24;;;;;;;2.08;1.73;;;18.50;51.70;;;;;;5073485;28;20206;-46
2021/10/16 11:02:03;;;;;;;2.33;2.00;;;18.50;51.70;;;;;;5072579;28;20250;-45
2021/10/16 11:04:49;;;;;;;2.42;2.08;;;18.50;51.70;;;;;;5079100;28;20717;-43
2021/10/16 11:07:33;;;;;;;3.92;2.05;;;18.40;51.70;;;;;;5076122;28;20206;-48
2021/10/16 11:10:05;;;;;;;3.47;2.03;;;18.40;51.80;;;;;;5074014;28;20725;-51
2021/10/16 11:12:37;;;;;;;2.33;2.08;;;18.40;51.80;;;;;;5070386;28;20211;-43
2021/10/16 11:15:11;;;;;;;2.80;2.22;;;18.40;51.80;;;;;;5076249;28;20684;-47
2021/10/16 11:17:42;;;;;;;2.75;2.00;;;18.40;51.80;;;;;;5086235;28;20193;-42
2021/10/16 11:20:16;;;;;;;3.17;2.20;;;18.40;51.90;;;;;;5070714;28;20222;-47
2021/10/16 11:22:52;;;;;;;2.20;2.00;;;18.40;51.90;;;;;;5090006;28;20202;-46
2021/10/16 11:25:25;;;;;;;3.38;2.10;;;18.30;51.80;;;;;;5071892;28;20285;-47
2021/10/16 11:28:09;;;;;;;2.42;2.10;;;18.30;51.80;;;;;;5072769;28;20230;-45
2021/10/16 11:30:43;;;;;;;5.05;2.40;;;18.30;51.90;;;;;;5084683;28;20300;-45
2021/10/16 11:33:15;;;;;;;3.17;2.20;;;18.30;51.80;;;;;;5075760;28;20238;-46
2021/10/16 11:35:46;;;;;;;2.70;2.03;;;18.30;51.80;;;;;;5072736;28;20666;-43
2021/10/16 11:38:20;;;;;;;3.25;2.30;;;18.30;51.90;;;;;;5072788;28;20233;-48
2021/10/16 11:40:50;;;;;;;3.67;2.08;;;18.20;51.80;;;;;;5074890;28;20600;-49
2021/10/16 11:43:23;;;;;;;4.07;2.30;;;18.20;51.80;;;;;;5085131;28;20221;-49
2021/10/16 11:45:56;;;;;;;3.72;2.08;;;18.20;51.90;;;;;;5074342;28;20277;-48
2021/10/16 11:48:29;;;;;;;3.13;2.20;;;18.20;51.90;;;;;;5089388;28;20661;-45
2021/10/16 11:51:01;;;;;;;2.55;1.85;;;18.20;52.50;;;;;;5070263;28;20295;-45
2021/10/16 11:53:32;;;;;;;3.53;2.40;;;18.20;51.90;;;;;;5071089;28;20689;-46
2021/10/16 11:56:07;;;;;;;4.68;2.20;;;18.20;51.90;;;;;;5071216;28;20285;-45
2021/10/16 11:58:38;;;;;;;3.13;2.28;;;18.20;52.00;;;;;;5072668;28;20366;-50
2021/10/16 12:01:11;;;;;;;2.88;1.90;;;18.20;52.00;;;;;;5073063;28;20289;-49
2021/10/16 12:03:43;;;;;;;2.90;2.00;;;18.10;51.90;;;;;;5071782;28;20233;-49
2021/10/16 12:06:15;;;;;;;2.78;2.05;;;18.10;51.90;;;;;;5072778;28;20231;-46
2021/10/16 12:08:48;;;;;;;3.03;2.05;;;18.10;51.90;;;;;;5071289;28;20226;-42
2021/10/16 12:11:23;;;;;;;3.45;2.20;;;18.10;51.90;;;;;;5071091;28;20257;-44
2021/10/16 12:13:59;;;;;;;3.45;2.20;;;18.10;52.00;;;;;;5071632;28;20236;-47
2021/10/16 12:16:39;;;;;;;3.30;2.30;;;18.10;51.90;;;;;;5070361;28;20219;-43
2021/10/16 12:19:15;;;;;;;2.50;2.10;;;18.10;52.00;;;;;;5070346;28;20290;-45
2021/10/16 12:21:47;;;;;;;3.03;2.03;;;18.10;52.00;;;;;;5071391;28;20320;-51
2021/10/16 12:24:19;;;;;;;2.20;1.92;;;18.00;52.00;;;;;;5083083;28;20230;-42
2021/10/16 12:26:50;;;;;;;4.18;2.20;;;18.00;52.00;;;;;;5076989;28;20234;-47
2021/10/16 12:29:32;;;;;;;2.30;1.90;;;18.00;52.60;;;;;;5070393;28;20282;-45
2021/10/16 12:32:07;;;;;;;2.88;2.05;;;18.00;52.00;;;;;;5074046;28;20227;-44
2021/10/16 12:34:39;;;;;;;2.20;1.90;;;18.00;52.00;;;;;;5070411;28;20277;-46
2021/10/16 12:37:10;;;;;;;2.60;2.20;;;18.00;52.00;;;;;;5070856;28;20252;-43
2021/10/16 12:39:43;;;;;;;3.17;2.00;;;18.00;52.10;;;;;;5069442;28;20241;-49
2021/10/16 12:42:15;;;;;;;2.88;2.13;;;18.00;52.10;;;;;;5086370;28;20253;-44
2021/10/16 12:44:47;;;;;;;5.32;2.10;;;18.00;52.10;;;;;;5087465;28;20281;-46
2021/10/16 12:47:22;;;;;;;3.35;2.20;;;17.90;52.00;;;;;;5085559;28;20236;-47
2021/10/16 12:50:03;;;;;;;2.58;2.03;;;18.00;52.00;;;;;;5071946;28;20655;-47
2021/10/16 12:52:34;;;;;;;3.92;2.28;;;17.90;52.00;;;;;;5081375;28;20306;-46
2021/10/16 12:55:21;;;;;;;2.75;1.67;;;17.90;52.00;;;;;;5077510;28;20203;-46
2021/10/16 12:57:59;;;;;;;2.50;1.88;;;17.90;52.00;;;;;;5074163;28;20682;-43
2021/10/16 13:00:30;;;;;;;2.17;1.80;;;17.90;52.00;;;;;;5087302;28;20256;-49
2021/10/16 13:03:03;;;;;;;2.78;2.28;;;17.90;52.00;;;;;;5076160;28;20302;-45
2021/10/16 13:05:33;;;;;;;3.47;1.95;;;17.80;52.00;;;;;;5081765;28;20202;-42
2021/10/16 13:08:05;;;;;;;3.40;1.95;;;17.80;52.00;;;;;;5073942;28;20284;-44
2021/10/16 13:10:37;;;;;;;2.97;2.03;;;17.80;52.00;;;;;;5074084;28;20273;-46
2021/10/16 13:13:08;;;;;;;3.95;2.03;;;17.80;52.10;;;;;;5073873;28;20236;-43